Time;durP1;ratioP1;P1;durP2;ratioP2;P2;SDS_P1;SDS_P2;PMS_P1;PMS_P2;Temp;Humidity;BMP_temperature;BMP_pressure;BME280_temperature;BME280_humidity;BME280_pressure;Samples;Min_cycle;Max_cycle;Signal;HPM_P1;HPM_P2
2023/08/23 00:00:07;;;;;;;1.70;0.75;;;25.40;67.80;;;;;;5139204;27;20434;-62
2023/08/23 00:02:34;;;;;;;1.00;0.70;;;25.40;66.80;;;;;;5139194;27;20920;-61
2023/08/23 00:05:03;;;;;;;1.42;0.90;;;25.40;94.10;;;;;;5139379;27;20503;-61
2023/08/23 00:07:30;;;;;;;1.10;0.88;;;25.40;82.70;;;;;;5139571;27;20418;-61
2023/08/23 00:09:57;;;;;;;1.10;0.80;;;25.20;93.80;;;;;;5138897;27;20410;-61
2023/08/23 00:12:23;;;;;;;1.50;0.90;;;25.20;99.90;;;;;;5139162;27;20471;-61
2023/08/23 00:14:50;;;;;;;1.08;0.90;;;25.20;99.90;;;;;;5139277;27;20821;-61
2023/08/23 00:17:18;;;;;;;1.70;0.90;;;25.10;99.90;;;;;;5139543;27;20425;-61
2023/08/23 00:19:46;;;;;;;1.60;0.90;;;25.10;99.90;;;;;;5139554;27;20462;-61
2023/08/23 00:22:14;;;;;;;1.30;0.88;;;25.10;99.90;;;;;;5139475;27;20418;-61
2023/08/23 00:24:41;;;;;;;1.90;0.80;;;25.00;99.90;;;;;;5139523;27;20502;-62
2023/08/23 00:27:08;;;;;;;1.40;0.93;;;24.90;99.90;;;;;;5139679;27;20779;-61
2023/08/23 00:29:37;;;;;;;2.40;0.85;;;24.90;99.90;;;;;;5139227;27;20414;-61
2023/08/23 00:32:05;;;;;;;1.10;0.80;;;24.80;99.90;;;;;;5139430;27;20907;-61
2023/08/23 00:34:32;;;;;;;1.40;0.77;;;24.70;99.90;;;;;;5139220;27;20710;-61
2023/08/23 00:36:58;;;;;;;1.80;0.80;;;24.70;99.90;;;;;;5139245;27;20416;-61
2023/08/23 00:39:27;;;;;;;1.50;0.80;;;24.70;1.00;;;;;;5138413;27;20410;-61
2023/08/23 00:41:54;;;;;;;1.00;0.80;;;24.70;1.00;;;;;;5138618;27;20479;-61
2023/08/23 00:44:21;;;;;;;1.00;0.88;;;24.80;1.00;;;;;;5138346;27;20483;-61
2023/08/23 00:46:48;;;;;;;2.30;0.90;;;24.70;1.00;;;;;;5139185;27;20429;-61
2023/08/23 00:49:15;;;;;;;1.10;0.80;;;24.80;1.00;;;;;;5138919;27;20467;-61
2023/08/23 00:51:43;;;;;;;2.00;0.90;;;24.80;1.00;;;;;;5138740;27;20418;-62
2023/08/23 00:54:11;;;;;;;1.23;0.90;;;24.70;1.00;;;;;;5138526;27;20436;-61
2023/08/23 00:56:40;;;;;;;1.43;0.87;;;24.70;1.00;;;;;;5138932;27;20799;-61
2023/08/23 00:59:08;;;;;;;1.65;0.85;;;24.70;1.00;;;;;;5138825;27;20422;-61
2023/08/23 01:01:36;;;;;;;1.42;0.80;;;24.60;1.00;;;;;;5137082;27;20525;-61
2023/08/23 01:04:03;;;;;;;1.37;1.00;;;24.60;1.00;;;;;;5138565;27;20783;-60
2023/08/23 01:06:45;;;;;;;2.50;0.90;;;24.60;1.00;;;;;;5138763;27;20415;-61
2023/08/23 01:09:22;;;;;;;1.60;1.20;;;24.50;1.00;;;;;;5138810;27;20433;-60
2023/08/23 01:12:00;;;;;;;1.53;0.90;;;24.50;1.00;;;;;;5137926;27;20479;-61
2023/08/23 01:14:37;;;;;;;1.40;0.98;;;24.60;1.00;;;;;;5138430;27;20418;-60
2023/08/23 01:17:05;;;;;;;2.37;1.00;;;24.50;1.00;;;;;;5137553;27;20483;-60
2023/08/23 01:19:43;;;;;;;1.40;1.00;;;24.40;1.00;;;;;;5137775;27;20430;-60
2023/08/23 01:22:13;;;;;;;2.13;0.90;;;24.30;1.00;;;;;;5138359;27;21079;-60
2023/08/23 01:24:42;;;;;;;1.60;1.00;;;24.40;1.00;;;;;;5138018;27;20426;-60
2023/08/23 01:27:09;;;;;;;3.70;1.00;;;24.50;1.00;;;;;;5138431;27;20422;-61
2023/08/23 01:29:36;;;;;;;1.73;0.90;;;24.50;1.00;;;;;;5137947;27;20422;-61
2023/08/23 01:32:17;;;;;;;1.35;1.00;;;24.60;1.00;;;;;;5138304;27;20418;-61
2023/08/23 01:34:49;;;;;;;2.10;1.02;;;24.60;1.00;;;;;;5138143;27;20417;-60
2023/08/23 01:37:18;;;;;;;2.10;0.90;;;24.40;1.00;;;;;;5138062;27;20422;-61
2023/08/23 01:39:47;;;;;;;1.52;1.00;;;24.30;1.00;;;;;;5137577;27;20411;-61
2023/08/23 01:42:14;;;;;;;2.10;1.00;;;24.30;1.00;;;;;;5137350;27;20471;-61
2023/08/23 01:44:43;;;;;;;1.38;0.90;;;24.30;1.00;;;;;;5136914;27;20849;-61
2023/08/23 01:47:10;;;;;;;1.35;0.90;;;24.30;1.00;;;;;;5138185;27;20801;-61
2023/08/23 01:49:37;;;;;;;1.95;1.00;;;24.30;1.00;;;;;;5137798;27;20422;-61
2023/08/23 01:52:05;;;;;;;1.38;0.90;;;24.30;1.00;;;;;;5137896;27;20410;-60
2023/08/23 01:54:32;;;;;;;1.27;0.90;;;24.20;1.00;;;;;;5138023;27;20411;-61
2023/08/23 01:57:00;;;;;;;1.70;0.90;;;24.00;2.10;;;;;;5138124;27;20418;-61
2023/08/23 01:59:27;;;;;;;1.50;1.00;;;24.00;99.90;;;;;;5137608;27;20418;-60
2023/08/23 02:01:54;;;;;;;1.40;0.90;;;24.00;99.90;;;;;;5137770;27;20830;-61
2023/08/23 02:04:21;;;;;;;1.90;1.10;;;24.00;99.90;;;;;;5137577;27;20845;-61
2023/08/23 02:06:48;;;;;;;1.30;1.00;;;23.90;99.90;;;;;;5137138;27;20825;-61
2023/08/23 02:09:15;;;;;;;1.98;1.00;;;24.00;99.90;;;;;;5137487;27;21063;-62
2023/08/23 02:11:42;;;;;;;1.92;1.10;;;24.20;99.90;;;;;;5137027;27;20418;-61
2023/08/23 02:14:11;;;;;;;1.50;1.20;;;24.20;99.90;;;;;;5136155;27;20422;-61
2023/08/23 02:16:38;;;;;;;1.38;1.10;;;24.20;99.90;;;;;;5137196;27;20422;-61
2023/08/23 02:19:05;;;;;;;1.90;1.00;;;24.10;99.90;;;;;;5137270;27;20414;-62
2023/08/23 02:21:32;;;;;;;2.00;1.00;;;24.00;99.90;;;;;;5137238;27;20835;-61
2023/08/23 02:23:59;;;;;;;1.40;1.00;;;23.80;99.90;;;;;;5137144;27;20841;-62
2023/08/23 02:26:27;;;;;;;1.40;1.00;;;23.70;1.00;;;;;;5136666;27;20475;-62
2023/08/23 02:28:53;;;;;;;1.25;0.90;;;23.60;1.00;;;;;;5136746;27;20418;-62
2023/08/23 02:31:22;;;;;;;1.10;1.00;;;23.70;93.70;;;;;;5136964;27;20860;-62
2023/08/23 02:33:49;;;;;;;2.50;0.93;;;23.80;1.00;;;;;;5136056;27;20471;-61
2023/08/23 02:36:16;;;;;;;1.20;0.98;;;23.80;1.00;;;;;;5121169;27;20422;-61
2023/08/23 02:38:43;;;;;;;1.30;1.10;;;23.80;1.00;;;;;;5137061;27;20429;-61
2023/08/23 02:41:10;;;;;;;1.27;1.00;;;23.90;1.00;;;;;;5136778;27;20418;-62
2023/08/23 02:43:37;;;;;;;1.75;1.10;;;23.90;1.00;;;;;;5136075;27;20429;-61
2023/08/23 02:46:04;;;;;;;1.60;1.20;;;23.90;1.00;;;;;;5136119;27;20411;-61
2023/08/23 02:48:32;;;;;;;1.50;1.20;;;23.80;1.00;;;;;;5136001;27;20486;-61
2023/08/23 02:50:59;;;;;;;1.30;1.00;;;23.80;1.00;;;;;;5136207;27;20423;-61
2023/08/23 02:53:26;;;;;;;1.50;1.10;;;23.60;1.00;;;;;;5136220;27;20421;-61
2023/08/23 02:55:53;;;;;;;1.98;1.00;;;23.40;1.00;;;;;;5136500;27;20433;-61
2023/08/23 02:58:20;;;;;;;1.75;1.10;;;23.40;1.00;;;;;;5136483;27;20422;-61
2023/08/23 03:00:47;;;;;;;1.30;1.00;;;23.30;1.00;;;;;;5136163;27;20444;-61
2023/08/23 03:03:14;;;;;;;1.70;1.08;;;23.30;1.00;;;;;;5136443;27;20403;-62
2023/08/23 03:05:50;;;;;;;1.43;1.10;;;23.30;54.10;;;;;;5135918;27;20444;-61
2023/08/23 03:08:17;;;;;;;1.30;1.10;;;23.30;99.90;;;;;;5135750;27;20844;-61
2023/08/23 03:10:44;;;;;;;1.70;1.10;;;23.40;32.40;;;;;;5135753;27;20426;-61
2023/08/23 03:13:11;;;;;;;1.17;1.00;;;23.40;14.00;;;;;;5136012;27;20422;-61
2023/08/23 03:15:38;;;;;;;2.40;1.23;;;23.30;99.90;;;;;;5136015;27;20469;-61
2023/08/23 03:18:05;;;;;;;1.10;1.00;;;23.30;1.00;;;;;;5136295;27;20418;-61
2023/08/23 03:20:32;;;;;;;1.30;1.00;;;23.30;1.00;;;;;;5134864;27;20498;-62
2023/08/23 03:23:01;;;;;;;2.05;1.30;;;23.30;99.20;;;;;;5134759;27;20613;-61
2023/08/23 03:25:28;;;;;;;1.90;1.10;;;23.30;99.90;;;;;;5134599;27;20759;-61
2023/08/23 03:27:55;;;;;;;1.80;1.10;;;23.20;1.00;;;;;;5134936;27;20475;-61
2023/08/23 03:30:22;;;;;;;1.70;1.00;;;23.30;1.00;;;;;;5134197;27;20443;-61
2023/08/23 03:32:49;;;;;;;1.70;1.10;;;23.30;1.00;;;;;;5135015;27;20427;-61
2023/08/23 03:35:16;;;;;;;2.40;1.13;;;23.20;1.00;;;;;;5135234;28;20422;-61
2023/08/23 03:37:43;;;;;;;1.70;1.10;;;23.20;1.00;;;;;;5135469;28;20853;-61
2023/08/23 03:40:12;;;;;;;2.40;1.10;;;23.30;1.00;;;;;;5134955;28;20918;-61
2023/08/23 03:42:39;;;;;;;1.35;1.20;;;23.20;1.00;;;;;;5134839;28;20829;-61
2023/08/23 03:45:07;;;;;;;2.42;1.20;;;23.20;1.00;;;;;;5135375;28;20711;-61
2023/08/23 03:47:34;;;;;;;2.47;1.23;;;23.00;99.90;;;;;;5134453;28;20478;-61
2023/08/23 03:50:01;;;;;;;2.20;1.35;;;23.00;1.00;;;;;;5134713;28;20422;-61
2023/08/23 03:52:28;;;;;;;2.20;1.20;;;22.90;1.00;;;;;;5134582;28;20736;-61
2023/08/23 03:54:55;;;;;;;1.67;1.30;;;22.80;99.90;;;;;;5135271;28;20817;-61
2023/08/23 03:57:23;;;;;;;2.23;1.20;;;22.80;99.90;;;;;;5135258;28;20410;-61
2023/08/23 03:59:50;;;;;;;2.23;1.40;;;22.80;99.90;;;;;;5135385;28;20783;-60
2023/08/23 04:02:17;;;;;;;2.47;1.20;;;22.80;34.90;;;;;;5134905;28;20422;-60
2023/08/23 04:04:44;;;;;;;1.60;1.20;;;22.80;99.90;;;;;;5135454;28;20933;-60
2023/08/23 04:07:15;;;;;;;4.10;1.40;;;22.80;7.20;;;;;;5135654;28;20486;-60
2023/08/23 04:09:42;;;;;;;1.70;1.20;;;22.60;99.90;;;;;;5134977;28;20411;-61
2023/08/23 04:12:09;;;;;;;2.08;1.30;;;22.60;1.00;;;;;;5135817;28;20917;-61
2023/08/23 04:14:37;;;;;;;2.05;1.50;;;22.70;99.90;;;;;;5135017;28;20426;-61
2023/08/23 04:17:05;;;;;;;2.00;1.20;;;22.70;99.90;;;;;;5135763;28;20490;-60
2023/08/23 04:19:32;;;;;;;1.70;1.50;;;22.70;99.90;;;;;;5135287;28;20419;-60
2023/08/23 04:21:59;;;;;;;1.85;1.17;;;22.70;99.90;;;;;;5135411;28;20415;-60
2023/08/23 04:24:26;;;;;;;2.40;1.40;;;22.60;99.90;;;;;;5134682;28;20430;-60
2023/08/23 04:26:53;;;;;;;1.63;1.40;;;22.70;1.00;;;;;;5134314;28;20419;-60
2023/08/23 04:29:19;;;;;;;2.20;1.30;;;22.70;99.90;;;;;;5134120;27;20426;-59
2023/08/23 04:31:48;;;;;;;1.70;1.30;;;22.80;83.30;;;;;;5134876;28;20421;-60
2023/08/23 04:34:15;;;;;;;2.78;1.30;;;22.80;99.90;;;;;;5134827;28;20419;-60
2023/08/23 04:36:42;;;;;;;2.20;1.27;;;22.90;99.90;;;;;;5136472;27;20475;-61
2023/08/23 04:39:09;;;;;;;2.70;1.30;;;22.90;99.90;;;;;;5138379;27;20475;-61
2023/08/23 04:41:36;;;;;;;1.52;1.20;;;23.00;7.80;;;;;;5138789;27;20429;-60
2023/08/23 04:44:03;;;;;;;2.00;1.20;;;22.90;89.00;;;;;;5138901;27;20414;-61
2023/08/23 04:46:30;;;;;;;4.60;1.40;;;23.20;99.90;;;;;;5139083;27;20419;-60
2023/08/23 04:48:59;;;;;;;2.60;1.30;;;23.20;99.90;;;;;;5138429;27;20802;-60
2023/08/23 04:51:26;;;;;;;1.60;1.13;;;23.10;87.60;;;;;;5137567;27;20767;-59
2023/08/23 04:53:53;;;;;;;1.75;1.10;;;23.10;1.00;;;;;;5136531;27;20418;-59
2023/08/23 04:56:20;;;;;;;1.60;1.30;;;23.20;1.00;;;;;;5136518;27;20821;-59
2023/08/23 04:58:47;;;;;;;1.40;1.10;;;23.10;99.90;;;;;;5135819;27;20814;-58
2023/08/23 05:01:15;;;;;;;1.80;1.10;;;23.10;1.00;;;;;;5137018;27;20422;-59
2023/08/23 05:03:42;;;;;;;2.90;1.13;;;23.20;1.00;;;;;;5137832;27;20435;-58
2023/08/23 05:06:10;;;;;;;2.00;1.27;;;23.20;1.00;;;;;;5137427;27;20430;-59
2023/08/23 05:08:37;;;;;;;1.70;1.27;;;23.10;99.90;;;;;;5136270;27;20901;-59
2023/08/23 05:11:04;;;;;;;1.50;1.10;;;23.00;99.90;;;;;;5138021;27;20702;-59
2023/08/23 05:13:31;;;;;;;2.05;1.10;;;23.10;1.00;;;;;;5137698;27;20483;-59
2023/08/23 05:15:58;;;;;;;1.50;1.20;;;23.40;99.90;;;;;;5138079;27;20414;-59
2023/08/23 05:18:25;;;;;;;1.70;1.30;;;23.20;1.00;;;;;;5137033;27;20421;-59
2023/08/23 05:20:57;;;;;;;1.98;1.30;;;23.20;1.00;;;;;;5136850;27;20743;-60
2023/08/23 05:23:26;;;;;;;1.30;1.17;;;23.10;1.00;;;;;;5136925;27;20463;-59
2023/08/23 05:25:53;;;;;;;1.80;1.25;;;23.10;99.90;;;;;;5137772;27;20438;-59
2023/08/23 05:28:21;;;;;;;1.40;1.00;;;23.20;26.50;;;;;;5137313;27;20425;-59
2023/08/23 05:30:48;;;;;;;1.87;1.20;;;23.20;99.90;;;;;;5136856;27;20418;-59
2023/08/23 05:33:15;;;;;;;3.20;1.30;;;23.40;1.00;;;;;;5137158;27;20411;-61
2023/08/23 05:35:43;;;;;;;2.22;1.42;;;23.40;99.90;;;;;;5137305;27;20420;-60
2023/08/23 05:38:10;;;;;;;2.30;1.20;;;23.40;99.90;;;;;;5135888;27;20418;-60
2023/08/23 05:40:39;;;;;;;2.10;1.30;;;23.40;99.90;;;;;;5136461;27;20418;-60
2023/08/23 05:43:06;;;;;;;1.70;1.20;;;23.40;1.00;;;;;;5136552;27;20848;-60
2023/08/23 05:45:34;;;;;;;2.17;1.30;;;23.50;1.00;;;;;;5136478;27;20457;-60
2023/08/23 05:48:01;;;;;;;1.50;1.30;;;23.50;99.90;;;;;;5135179;27;20423;-60
2023/08/23 05:50:28;;;;;;;1.98;1.40;;;23.50;1.00;;;;;;5137450;27;20515;-60
2023/08/23 05:52:55;;;;;;;1.30;1.20;;;23.50;1.00;;;;;;5136210;27;20451;-60
2023/08/23 05:55:23;;;;;;;1.33;1.10;;;23.50;99.90;;;;;;5136823;27;20471;-60
2023/08/23 05:57:51;;;;;;;1.40;1.30;;;23.60;99.90;;;;;;5137406;27;20783;-60
2023/08/23 06:00:18;;;;;;;2.08;1.38;;;23.50;1.00;;;;;;5134995;27;20406;-60
2023/08/23 06:02:45;;;;;;;1.70;1.30;;;23.50;73.30;;;;;;5134745;27;20418;-60
2023/08/23 06:05:13;;;;;;;1.60;1.50;;;23.60;1.00;;;;;;5132609;27;20427;-60
2023/08/23 06:07:43;;;;;;;1.48;1.20;;;23.70;1.00;;;;;;5133301;27;20433;-61
2023/08/23 06:10:11;;;;;;;1.60;1.40;;;23.60;1.00;;;;;;5133404;27;20418;-60
2023/08/23 06:12:38;;;;;;;31.00;4.80;;;23.60;1.00;;;;;;5134571;27;20411;-66
2023/08/23 06:15:07;;;;;;;11.70;2.47;;;23.60;1.00;;;;;;5133623;27;20429;-62
2023/08/23 06:17:34;;;;;;;2.70;1.30;;;23.60;1.00;;;;;;5133831;27;20434;-62
2023/08/23 06:20:04;;;;;;;31.73;5.15;;;23.70;1.00;;;;;;5135690;27;20483;-61
2023/08/23 06:22:31;;;;;;;2.35;1.20;;;23.70;1.00;;;;;;5134202;27;20418;-62
2023/08/23 06:24:58;;;;;;;2.95;1.40;;;23.70;99.90;;;;;;5133484;27;20423;-61
2023/08/23 06:27:25;;;;;;;2.60;1.42;;;23.70;1.00;;;;;;5133321;27;20474;-60
2023/08/23 06:29:52;;;;;;;1.60;1.33;;;23.80;1.00;;;;;;5133895;27;20422;-61
2023/08/23 06:32:20;;;;;;;2.33;1.20;;;23.70;99.90;;;;;;5134586;27;20430;-63
2023/08/23 06:34:47;;;;;;;2.17;1.23;;;23.80;99.90;;;;;;5135391;27;20428;-63
2023/08/23 06:37:14;;;;;;;1.60;1.20;;;23.80;99.90;;;;;;5135160;27;20511;-63
2023/08/23 06:39:41;;;;;;;1.57;1.20;;;23.90;99.90;;;;;;5134188;27;20902;-63
2023/08/23 06:42:08;;;;;;;2.50;1.50;;;23.90;99.90;;;;;;5134675;27;20673;-64
2023/08/23 06:44:35;;;;;;;1.70;1.40;;;23.90;99.90;;;;;;5133623;27;20426;-63
2023/08/23 06:47:02;;;;;;;1.60;1.40;;;23.80;99.90;;;;;;5135008;27;20422;-64
2023/08/23 06:49:31;;;;;;;2.70;1.45;;;23.60;99.90;;;;;;5134286;27;20918;-63
2023/08/23 06:51:58;;;;;;;1.60;1.20;;;23.60;1.00;;;;;;5136090;27;20414;-63
2023/08/23 06:54:25;;;;;;;2.63;1.40;;;23.70;1.00;;;;;;5135464;27;20463;-63
2023/08/23 06:56:52;;;;;;;2.00;1.35;;;23.90;1.00;;;;;;5135542;27;20418;-62
2023/08/23 06:59:19;;;;;;;2.40;1.50;;;23.90;99.90;;;;;;5134103;27;20422;-63
2023/08/23 07:01:47;;;;;;;2.05;1.40;;;23.90;99.90;;;;;;5134638;27;20418;-63
2023/08/23 07:04:14;;;;;;;2.20;1.20;;;23.90;59.90;;;;;;5134334;27;20778;-63
2023/08/23 07:06:42;;;;;;;3.30;1.40;;;24.00;99.90;;;;;;5133458;27;20503;-63
2023/08/23 07:09:10;;;;;;;1.80;1.30;;;24.30;1.00;;;;;;5133152;27;20417;-63
2023/08/23 07:11:38;;;;;;;1.88;1.65;;;24.50;1.00;;;;;;5134891;27;20539;-63
2023/08/23 07:14:06;;;;;;;3.13;2.00;;;24.50;1.00;;;;;;5134116;27;21003;-63
2023/08/23 07:16:33;;;;;;;2.65;1.55;;;24.50;1.00;;;;;;5133798;27;20415;-63
2023/08/23 07:19:01;;;;;;;3.20;1.50;;;24.40;1.00;;;;;;5133203;27;20426;-63
2023/08/23 07:21:29;;;;;;;2.90;1.50;;;24.20;1.00;;;;;;5133280;27;20505;-63
2023/08/23 07:23:57;;;;;;;3.45;1.58;;;24.10;1.00;;;;;;5134928;27;20484;-63
2023/08/23 07:26:25;;;;;;;3.20;1.60;;;24.30;1.00;;;;;;5134599;27;20853;-63
2023/08/23 07:28:52;;;;;;;1.58;1.30;;;24.30;1.00;;;;;;5134537;27;20920;-63
2023/08/23 07:31:19;;;;;;;3.33;1.70;;;24.40;1.00;;;;;;5132675;27;20918;-62
2023/08/23 07:33:46;;;;;;;2.55;1.75;;;24.30;1.00;;;;;;5132298;27;20910;-60
2023/08/23 07:36:13;;;;;;;2.40;1.60;;;24.20;1.00;;;;;;5133803;27;20856;-62
2023/08/23 07:38:40;;;;;;;3.28;1.60;;;24.20;1.00;;;;;;5134570;28;20426;-61
2023/08/23 07:41:08;;;;;;;1.83;1.30;;;24.50;1.00;;;;;;5133945;28;20418;-61
2023/08/23 07:43:35;;;;;;;2.60;1.50;;;24.70;99.90;;;;;;5132637;28;20771;-61
2023/08/23 07:46:03;;;;;;;2.92;1.60;;;24.60;99.90;;;;;;5132584;28;20427;-62
2023/08/23 07:48:30;;;;;;;1.90;1.70;;;24.80;99.90;;;;;;5131684;28;20622;-61
2023/08/23 07:51:00;;;;;;;2.72;1.65;;;24.90;99.30;;;;;;5132687;28;20422;-61
2023/08/23 07:53:27;;;;;;;1.80;1.40;;;24.70;99.90;;;;;;5134643;28;20422;-62
2023/08/23 07:55:54;;;;;;;2.60;1.42;;;24.90;99.90;;;;;;5134899;28;20479;-62
2023/08/23 07:58:23;;;;;;;3.60;1.60;;;25.10;87.40;;;;;;5134879;28;20426;-62
2023/08/23 08:00:51;;;;;;;3.45;1.70;;;25.20;27.60;;;;;;5134858;28;20410;-62
2023/08/23 08:03:18;;;;;;;2.30;1.40;;;25.20;1.00;;;;;;5134488;28;20790;-62
2023/08/23 08:05:45;;;;;;;2.00;1.70;;;25.10;1.00;;;;;;5134223;28;20438;-63
2023/08/23 08:08:12;;;;;;;2.60;1.60;;;25.20;1.00;;;;;;5132759;28;20479;-63
2023/08/23 08:10:39;;;;;;;2.20;1.60;;;25.10;1.00;;;;;;5133454;27;20716;-63
2023/08/23 08:13:06;;;;;;;1.65;1.40;;;25.20;1.00;;;;;;5136902;27;20478;-63
2023/08/23 08:15:35;;;;;;;2.38;1.40;;;25.40;1.00;;;;;;5136772;27;20414;-63
2023/08/23 08:18:02;;;;;;;2.00;1.40;;;25.60;1.00;;;;;;5136697;27;20421;-63
2023/08/23 08:20:29;;;;;;;1.90;1.40;;;25.60;1.00;;;;;;5136911;27;20422;-63
2023/08/23 08:22:56;;;;;;;1.90;1.33;;;25.60;1.00;;;;;;5137500;27;20449;-62
2023/08/23 08:25:23;;;;;;;1.90;1.58;;;25.60;1.00;;;;;;5138201;27;20422;-61
2023/08/23 08:27:51;;;;;;;1.92;1.25;;;25.80;1.00;;;;;;5137486;27;20415;-62
2023/08/23 08:30:19;;;;;;;2.07;1.80;;;26.10;1.00;;;;;;5137017;27;20422;-62
2023/08/23 08:32:47;;;;;;;1.30;1.20;;;26.20;1.00;;;;;;5136861;27;20499;-62
2023/08/23 08:35:14;;;;;;;2.80;1.60;;;26.30;99.90;;;;;;5137907;27;20734;-62
2023/08/23 08:37:41;;;;;;;2.38;1.30;;;26.40;99.90;;;;;;5137345;27;20503;-62
2023/08/23 08:40:10;;;;;;;1.70;1.40;;;26.20;99.90;;;;;;5138314;27;20475;-62
2023/08/23 08:42:37;;;;;;;1.90;1.40;;;26.20;99.90;;;;;;5133200;27;20582;-62
2023/08/23 08:45:05;;;;;;;1.80;1.40;;;26.20;99.90;;;;;;5115476;27;20439;-65
2023/08/23 08:47:32;;;;;;;1.80;1.30;;;26.30;99.90;;;;;;5120976;27;20859;-61
2023/08/23 08:50:01;;;;;;;1.90;1.58;;;26.50;99.90;;;;;;5119010;27;20432;-62
2023/08/23 08:52:30;;;;;;;2.20;1.40;;;26.80;99.90;;;;;;5117277;27;20427;-60
2023/08/23 08:54:59;;;;;;;2.45;1.40;;;26.90;99.90;;;;;;5116133;27;20428;-61
2023/08/23 08:57:28;;;;;;;3.20;1.40;;;26.90;99.90;;;;;;5128518;27;20527;-61
2023/08/23 08:59:57;;;;;;;2.30;1.50;;;27.00;99.90;;;;;;5117160;28;20469;-63
2023/08/23 09:02:27;;;;;;;1.50;1.33;;;27.00;99.90;;;;;;5115798;27;20451;-63
2023/08/23 09:04:55;;;;;;;1.52;1.20;;;27.10;99.90;;;;;;5115504;28;20448;-63
2023/08/23 09:07:24;;;;;;;2.20;1.23;;;27.20;99.90;;;;;;5126520;27;20499;-63
2023/08/23 09:09:52;;;;;;;1.45;1.30;;;27.30;99.90;;;;;;5128266;27;20898;-63
2023/08/23 09:12:19;;;;;;;2.00;1.60;;;27.30;99.10;;;;;;5116211;27;20428;-63
2023/08/23 09:14:49;;;;;;;2.00;1.90;;;27.30;99.90;;;;;;5133313;27;20419;-63
2023/08/23 09:17:17;;;;;;;3.10;1.17;;;27.30;93.30;;;;;;5118776;27;20874;-64
2023/08/23 09:19:44;;;;;;;2.30;1.40;;;27.40;56.60;;;;;;5117071;27;20488;-62
2023/08/23 09:22:11;;;;;;;2.00;1.23;;;27.60;62.80;;;;;;5114921;28;20427;-64
2023/08/23 09:24:39;;;;;;;2.08;1.20;;;27.70;41.10;;;;;;5113096;27;20432;-64
2023/08/23 09:27:06;;;;;;;1.40;1.10;;;27.80;10.30;;;;;;5113767;27;20509;-64
2023/08/23 09:29:33;;;;;;;3.00;1.10;;;27.80;1.00;;;;;;5114177;27;20443;-66
2023/08/23 09:32:00;;;;;;;1.80;1.20;;;27.90;1.00;;;;;;5114659;27;20444;-66
2023/08/23 09:34:27;;;;;;;1.60;1.10;;;27.90;1.00;;;;;;5118157;27;20432;-66
2023/08/23 09:37:05;;;;;;;1.75;1.30;;;27.80;1.00;;;;;;5115237;27;21053;-67
2023/08/23 09:39:32;;;;;;;2.03;1.20;;;27.90;1.00;;;;;;5130802;27;20865;-67
2023/08/23 09:42:05;;;;;;;1.40;1.20;;;28.10;1.00;;;;;;5129266;27;21176;-65
2023/08/23 09:44:39;;;;;;;1.30;1.10;;;28.20;1.00;;;;;;5116411;27;20446;-66
2023/08/23 09:47:10;;;;;;;2.50;1.30;;;28.40;1.00;;;;;;5118794;27;20432;-64
2023/08/23 09:49:39;;;;;;;1.77;1.27;;;28.40;1.00;;;;;;5115124;28;20436;-65
2023/08/23 09:52:06;;;;;;;2.00;1.30;;;28.20;1.00;;;;;;5113179;27;20496;-65
2023/08/23 09:54:45;;;;;;;2.53;1.30;;;28.20;1.00;;;;;;5124194;27;20426;-65
2023/08/23 09:57:14;;;;;;;2.77;1.50;;;28.40;1.00;;;;;;5121685;27;20428;-66
2023/08/23 09:59:43;;;;;;;1.35;1.20;;;28.60;1.00;;;;;;5113301;27;20483;-60
2023/08/23 10:02:11;;;;;;;1.90;1.20;;;28.80;1.00;;;;;;5132406;27;20457;-59
2023/08/23 10:04:40;;;;;;;2.40;1.20;;;29.00;1.00;;;;;;5113183;28;20534;-59
2023/08/23 10:07:08;;;;;;;5.40;1.43;;;29.10;1.00;;;;;;5116863;27;20513;-59
2023/08/23 10:09:35;;;;;;;2.10;1.10;;;29.30;1.00;;;;;;5131437;27;20430;-59
2023/08/23 10:12:05;;;;;;;1.70;1.10;;;29.60;1.00;;;;;;5134367;27;20506;-60
2023/08/23 10:14:37;;;;;;;2.38;1.20;;;29.80;1.00;;;;;;5116131;27;20461;-59
2023/08/23 10:17:07;;;;;;;1.58;1.25;;;30.10;1.00;;;;;;5114792;28;20440;-61
2023/08/23 10:19:35;;;;;;;1.30;1.10;;;30.40;1.00;;;;;;5114569;28;20432;-60
2023/08/23 10:22:02;;;;;;;1.30;1.20;;;30.40;1.00;;;;;;5121827;27;20521;-59
2023/08/23 10:24:29;;;;;;;2.50;1.20;;;30.40;1.00;;;;;;5133515;27;20474;-59
2023/08/23 10:26:56;;;;;;;2.60;1.10;;;30.70;1.00;;;;;;5133750;27;20487;-58
2023/08/23 10:29:26;;;;;;;2.00;1.10;;;30.70;1.00;;;;;;5117268;27;20435;-59
2023/08/23 10:31:56;;;;;;;1.90;1.30;;;30.80;1.00;;;;;;5114906;27;20540;-59
2023/08/23 10:34:26;;;;;;;1.20;1.00;;;30.60;1.00;;;;;;5130002;27;20502;-58
2023/08/23 10:36:55;;;;;;;2.83;1.10;;;30.50;1.00;;;;;;5131758;27;20979;-60
2023/08/23 10:39:23;;;;;;;1.60;1.20;;;30.70;1.00;;;;;;5125150;27;20430;-59
2023/08/23 10:41:54;;;;;;;1.20;1.10;;;31.10;1.00;;;;;;5131731;27;20418;-59
2023/08/23 10:44:22;;;;;;;1.60;1.30;;;31.40;1.00;;;;;;5127569;27;20430;-60
2023/08/23 10:46:51;;;;;;;1.83;1.40;;;31.30;1.00;;;;;;5133363;27;20434;-60
2023/08/23 10:49:21;;;;;;;1.98;1.10;;;31.00;1.00;;;;;;5116520;27;20444;-60
2023/08/23 10:51:48;;;;;;;1.58;1.20;;;30.90;1.00;;;;;;5113545;27;20437;-60
2023/08/23 10:54:15;;;;;;;1.23;1.13;;;30.90;1.00;;;;;;5129536;27;20430;-59
2023/08/23 10:56:43;;;;;;;1.27;1.10;;;31.20;1.00;;;;;;5128721;27;20734;-60
2023/08/23 10:59:10;;;;;;;1.20;1.00;;;31.20;1.00;;;;;;5131424;27;20483;-60
2023/08/23 11:01:38;;;;;;;2.70;1.20;;;31.50;1.00;;;;;;5122674;27;20422;-60
2023/08/23 11:04:07;;;;;;;1.63;1.00;;;31.90;1.00;;;;;;5138346;27;20539;-60
2023/08/23 11:06:36;;;;;;;1.17;1.00;;;31.90;1.00;;;;;;5133550;27;20422;-60
2023/08/23 11:09:04;;;;;;;1.20;1.10;;;32.10;1.00;;;;;;5120347;27;20562;-58
2023/08/23 11:11:31;;;;;;;1.50;1.00;;;32.10;1.00;;;;;;5119664;27;20588;-58
2023/08/23 11:13:58;;;;;;;1.30;1.00;;;32.20;1.00;;;;;;5129617;27;20430;-58
2023/08/23 11:16:25;;;;;;;2.03;1.05;;;32.10;1.00;;;;;;5119748;27;20953;-60
2023/08/23 11:18:53;;;;;;;1.70;1.00;;;32.50;1.00;;;;;;5125513;27;20541;-59
2023/08/23 11:21:21;;;;;;;1.20;1.10;;;32.90;1.00;;;;;;5126518;27;20523;-58
2023/08/23 11:23:49;;;;;;;1.30;1.10;;;32.90;1.00;;;;;;5114277;28;20444;-58
2023/08/23 11:26:16;;;;;;;1.95;1.20;;;33.00;1.00;;;;;;5125069;27;20504;-58
2023/08/23 11:28:43;;;;;;;1.50;1.00;;;33.00;1.00;;;;;;5125574;27;20438;-58
2023/08/23 11:31:10;;;;;;;1.48;1.10;;;33.10;1.00;;;;;;5120408;27;20594;-59
2023/08/23 11:33:38;;;;;;;1.17;1.08;;;33.00;1.00;;;;;;5118749;27;20751;-58
2023/08/23 11:36:09;;;;;;;1.20;1.00;;;33.10;1.00;;;;;;5115022;27;20447;-58
2023/08/23 11:38:36;;;;;;;1.50;1.00;;;32.30;1.00;;;;;;5114382;28;20444;-58
2023/08/23 11:41:05;;;;;;;1.40;1.10;;;32.40;1.00;;;;;;5113812;28;20931;-59
2023/08/23 11:43:31;;;;;;;1.60;1.10;;;32.80;1.00;;;;;;5112786;28;20436;-59
2023/08/23 11:45:59;;;;;;;1.20;1.10;;;33.00;1.00;;;;;;5115017;28;20482;-58
2023/08/23 11:48:26;;;;;;;1.30;1.05;;;33.00;1.00;;;;;;5117196;27;20515;-59
2023/08/23 11:50:54;;;;;;;1.25;1.00;;;33.20;1.00;;;;;;5117109;28;20482;-60
2023/08/23 11:53:21;;;;;;;1.70;1.00;;;33.40;1.00;;;;;;5114874;27;20432;-60
2023/08/23 11:55:51;;;;;;;1.47;1.00;;;33.60;1.00;;;;;;5114562;27;20427;-60
2023/08/23 11:58:19;;;;;;;1.20;1.00;;;33.40;1.00;;;;;;5119988;27;20436;-60
2023/08/23 12:00:48;;;;;;;1.20;1.00;;;33.40;1.00;;;;;;5116824;27;20424;-60
2023/08/23 12:03:16;;;;;;;1.80;1.00;;;33.50;1.00;;;;;;5121077;27;21119;-59
2023/08/23 12:05:43;;;;;;;1.13;1.00;;;33.70;1.00;;;;;;5133178;27;20526;-58
2023/08/23 12:08:10;;;;;;;1.10;1.00;;;33.80;1.00;;;;;;5122360;27;20883;-59
2023/08/23 12:10:37;;;;;;;1.90;1.17;;;33.90;1.00;;;;;;5135029;27;20505;-59
2023/08/23 12:13:04;;;;;;;1.60;1.00;;;33.90;1.00;;;;;;5116567;27;21506;-58
2023/08/23 12:15:34;;;;;;;1.20;0.90;;;33.70;1.00;;;;;;5130129;27;20431;-59
2023/08/23 12:18:02;;;;;;;2.38;1.00;;;33.50;1.00;;;;;;5118640;27;20432;-59
2023/08/23 12:20:29;;;;;;;1.10;1.00;;;33.40;1.00;;;;;;5128670;27;20434;-58
2023/08/23 12:22:56;;;;;;;1.23;1.00;;;33.50;1.00;;;;;;5129263;27;20436;-58
2023/08/23 12:25:23;;;;;;;1.10;1.00;;;33.10;1.00;;;;;;5116303;28;20431;-58
2023/08/23 12:27:50;;;;;;;1.90;1.02;;;33.00;1.00;;;;;;5116080;28;20482;-59
2023/08/23 12:30:17;;;;;;;1.10;0.90;;;32.90;1.00;;;;;;5114779;28;20424;-58
2023/08/23 12:32:46;;;;;;;1.35;1.00;;;33.10;1.00;;;;;;5119399;27;20429;-59
2023/08/23 12:35:13;;;;;;;1.20;1.10;;;33.00;1.00;;;;;;5152656;27;20886;-58
2023/08/23 12:37:40;;;;;;;1.20;0.90;;;33.00;1.00;;;;;;5157920;27;20974;-59
2023/08/23 12:40:09;;;;;;;1.40;0.90;;;33.20;1.00;;;;;;5157553;27;20413;-59
2023/08/23 12:42:37;;;;;;;1.20;1.10;;;33.50;1.00;;;;;;5155087;27;20459;-60
2023/08/23 12:45:05;;;;;;;1.10;0.90;;;33.50;1.00;;;;;;5156245;27;20429;-60
2023/08/23 12:47:32;;;;;;;1.67;0.90;;;33.50;1.00;;;;;;5142240;27;20569;-60
2023/08/23 12:50:01;;;;;;;1.70;1.00;;;33.90;1.00;;;;;;5130692;27;20432;-60
2023/08/23 12:52:27;;;;;;;2.50;0.90;;;33.60;1.00;;;;;;5121305;27;20428;-60
2023/08/23 12:54:55;;;;;;;1.50;0.90;;;33.10;1.00;;;;;;5121711;27;20781;-60